sensor_id;sensor_type;location;lat;lon;timestamp;P1;durP1;ratioP1;P2;durP2;ratioP2
11473;SDS011;5793;52.238;13.438;2022-08-21T00:00:01;9.90;;;9.02;;
11473;SDS011;5793;52.238;13.438;2022-08-21T00:02:29;9.80;;;8.88;;
11473;SDS011;5793;52.238;13.438;2022-08-21T00:04:57;9.10;;;8.30;;
11473;SDS011;5793;52.238;13.438;2022-08-21T00:07:25;10.45;;;9.45;;
11473;SDS011;5793;52.238;13.438;2022-08-21T00:09:53;10.50;;;9.32;;
11473;SDS011;5793;52.238;13.438;2022-08-21T00:12:23;10.18;;;9.18;;
11473;SDS011;5793;52.238;13.438;2022-08-21T00:14:50;9.90;;;8.95;;
11473;SDS011;5793;52.238;13.438;2022-08-21T00:17:23;9.75;;;8.80;;
11473;SDS011;5793;52.238;13.438;2022-08-21T00:19:50;8.70;;;7.93;;
11473;SDS011;5793;52.238;13.438;2022-08-21T00:22:18;8.40;;;7.60;;
11473;SDS011;5793;52.238;13.438;2022-08-21T00:24:46;9.68;;;8.88;;
11473;SDS011;5793;52.238;13.438;2022-08-21T00:27:14;10.38;;;8.98;;
11473;SDS011;5793;52.238;13.438;2022-08-21T00:29:43;12.18;;;9.60;;
11473;SDS011;5793;52.238;13.438;2022-08-21T00:32:11;10.13;;;9.00;;
11473;SDS011;5793;52.238;13.438;2022-08-21T00:34:39;12.18;;;9.30;;
11473;SDS011;5793;52.238;13.438;2022-08-21T00:37:07;14.02;;;8.98;;
11473;SDS011;5793;52.238;13.438;2022-08-21T00:39:34;10.25;;;9.18;;
11473;SDS011;5793;52.238;13.438;2022-08-21T00:42:02;10.60;;;9.60;;
11473;SDS011;5793;52.238;13.438;2022-08-21T00:44:30;11.13;;;10.02;;
11473;SDS011;5793;52.238;13.438;2022-08-21T00:47:00;11.93;;;9.88;;
11473;SDS011;5793;52.238;13.438;2022-08-21T00:49:28;10.15;;;9.15;;
11473;SDS011;5793;52.238;13.438;2022-08-21T00:51:57;11.15;;;10.05;;
11473;SDS011;5793;52.238;13.438;2022-08-21T00:54:28;10.93;;;9.82;;
11473;SDS011;5793;52.238;13.438;2022-08-21T00:56:59;12.15;;;10.95;;
11473;SDS011;5793;52.238;13.438;2022-08-21T00:59:29;12.50;;;10.20;;
11473;SDS011;5793;52.238;13.438;2022-08-21T01:02:03;10.88;;;9.88;;
11473;SDS011;5793;52.238;13.438;2022-08-21T01:04:33;10.80;;;9.70;;
11473;SDS011;5793;52.238;13.438;2022-08-21T01:07:02;11.27;;;9.93;;
11473;SDS011;5793;52.238;13.438;2022-08-21T01:09:30;10.85;;;9.75;;
11473;SDS011;5793;52.238;13.438;2022-08-21T01:11:58;11.00;;;9.68;;
11473;SDS011;5793;52.238;13.438;2022-08-21T01:14:26;10.50;;;9.50;;
11473;SDS011;5793;52.238;13.438;2022-08-21T01:16:54;9.55;;;8.75;;
11473;SDS011;5793;52.238;13.438;2022-08-21T01:19:25;9.88;;;8.98;;
11473;SDS011;5793;52.238;13.438;2022-08-21T01:21:55;10.55;;;9.10;;
11473;SDS011;5793;52.238;13.438;2022-08-21T01:24:23;10.02;;;8.95;;
11473;SDS011;5793;52.238;13.438;2022-08-21T01:26:51;9.00;;;8.13;;
11473;SDS011;5793;52.238;13.438;2022-08-21T01:29:32;10.77;;;8.57;;
11473;SDS011;5793;52.238;13.438;2022-08-21T01:32:07;10.45;;;8.35;;
11473;SDS011;5793;52.238;13.438;2022-08-21T01:34:40;9.55;;;8.52;;
11473;SDS011;5793;52.238;13.438;2022-08-21T01:37:10;9.43;;;8.30;;
11473;SDS011;5793;52.238;13.438;2022-08-21T01:39:38;9.32;;;8.43;;
11473;SDS011;5793;52.238;13.438;2022-08-21T01:42:08;9.57;;;8.20;;
11473;SDS011;5793;52.238;13.438;2022-08-21T01:44:36;9.52;;;8.10;;
11473;SDS011;5793;52.238;13.438;2022-08-21T01:47:05;8.93;;;7.57;;
11473;SDS011;5793;52.238;13.438;2022-08-21T01:49:35;9.70;;;8.73;;
11473;SDS011;5793;52.238;13.438;2022-08-21T01:52:04;12.27;;;8.15;;
11473;SDS011;5793;52.238;13.438;2022-08-21T01:54:36;9.45;;;7.63;;
11473;SDS011;5793;52.238;13.438;2022-08-21T01:57:04;11.70;;;8.75;;
11473;SDS011;5793;52.238;13.438;2022-08-21T01:59:36;10.68;;;9.02;;
11473;SDS011;5793;52.238;13.438;2022-08-21T02:02:04;9.32;;;8.00;;
11473;SDS011;5793;52.238;13.438;2022-08-21T02:04:32;11.30;;;8.63;;
11473;SDS011;5793;52.238;13.438;2022-08-21T02:07:01;10.43;;;7.97;;
11473;SDS011;5793;52.238;13.438;2022-08-21T02:09:33;10.80;;;8.05;;
11473;SDS011;5793;52.238;13.438;2022-08-21T02:12:06;8.48;;;7.68;;
11473;SDS011;5793;52.238;13.438;2022-08-21T02:14:35;8.52;;;7.72;;
11473;SDS011;5793;52.238;13.438;2022-08-21T02:17:03;8.95;;;7.80;;
11473;SDS011;5793;52.238;13.438;2022-08-21T02:19:35;9.00;;;7.88;;
11473;SDS011;5793;52.238;13.438;2022-08-21T02:22:06;9.68;;;8.20;;
11473;SDS011;5793;52.238;13.438;2022-08-21T02:24:35;8.18;;;7.47;;
11473;SDS011;5793;52.238;13.438;2022-08-21T02:27:21;8.70;;;7.85;;
11473;SDS011;5793;52.238;13.438;2022-08-21T02:29:52;8.90;;;8.05;;
11473;SDS011;5793;52.238;13.438;2022-08-21T02:32:21;9.43;;;8.35;;
11473;SDS011;5793;52.238;13.438;2022-08-21T02:34:48;10.13;;;8.20;;
11473;SDS011;5793;52.238;13.438;2022-08-21T02:37:16;10.15;;;8.63;;
11473;SDS011;5793;52.238;13.438;2022-08-21T02:39:44;8.70;;;7.80;;
11473;SDS011;5793;52.238;13.438;2022-08-21T02:42:12;9.63;;;8.07;;
11473;SDS011;5793;52.238;13.438;2022-08-21T02:44:41;10.65;;;7.80;;
11473;SDS011;5793;52.238;13.438;2022-08-21T02:47:09;10.38;;;8.05;;
11473;SDS011;5793;52.238;13.438;2022-08-21T02:49:36;9.95;;;7.20;;
11473;SDS011;5793;52.238;13.438;2022-08-21T02:52:04;9.95;;;7.95;;
11473;SDS011;5793;52.238;13.438;2022-08-21T02:54:32;9.02;;;7.20;;
11473;SDS011;5793;52.238;13.438;2022-08-21T02:57:02;8.90;;;8.00;;
11473;SDS011;5793;52.238;13.438;2022-08-21T02:59:30;8.40;;;7.60;;
11473;SDS011;5793;52.238;13.438;2022-08-21T03:01:59;8.60;;;7.15;;
11473;SDS011;5793;52.238;13.438;2022-08-21T03:04:27;7.47;;;6.78;;
11473;SDS011;5793;52.238;13.438;2022-08-21T03:06:55;8.50;;;7.70;;
11473;SDS011;5793;52.238;13.438;2022-08-21T03:09:23;7.43;;;6.72;;
11473;SDS011;5793;52.238;13.438;2022-08-21T03:11:51;9.65;;;7.57;;
11473;SDS011;5793;52.238;13.438;2022-08-21T03:14:19;11.80;;;7.10;;
11473;SDS011;5793;52.238;13.438;2022-08-21T03:16:47;10.82;;;7.00;;
11473;SDS011;5793;52.238;13.438;2022-08-21T03:19:17;7.38;;;6.47;;
11473;SDS011;5793;52.238;13.438;2022-08-21T03:21:45;14.20;;;7.28;;
11473;SDS011;5793;52.238;13.438;2022-08-21T03:24:12;6.82;;;6.13;;
11473;SDS011;5793;52.238;13.438;2022-08-21T03:26:43;8.35;;;6.72;;
11473;SDS011;5793;52.238;13.438;2022-08-21T03:29:11;7.20;;;6.05;;
11473;SDS011;5793;52.238;13.438;2022-08-21T03:31:39;7.78;;;6.70;;
11473;SDS011;5793;52.238;13.438;2022-08-21T03:34:07;6.72;;;6.13;;
11473;SDS011;5793;52.238;13.438;2022-08-21T03:36:36;10.05;;;6.30;;
11473;SDS011;5793;52.238;13.438;2022-08-21T03:39:03;7.22;;;6.05;;
11473;SDS011;5793;52.238;13.438;2022-08-21T03:41:31;7.22;;;6.10;;
11473;SDS011;5793;52.238;13.438;2022-08-21T03:43:59;7.30;;;6.10;;
11473;SDS011;5793;52.238;13.438;2022-08-21T03:46:27;7.53;;;5.78;;
11473;SDS011;5793;52.238;13.438;2022-08-21T03:48:55;7.38;;;5.97;;
11473;SDS011;5793;52.238;13.438;2022-08-21T03:51:22;9.38;;;6.30;;
11473;SDS011;5793;52.238;13.438;2022-08-21T03:53:52;8.38;;;6.07;;
11473;SDS011;5793;52.238;13.438;2022-08-21T03:56:20;6.47;;;5.70;;
11473;SDS011;5793;52.238;13.438;2022-08-21T03:58:48;9.18;;;5.65;;
11473;SDS011;5793;52.238;13.438;2022-08-21T04:01:16;6.43;;;5.38;;
11473;SDS011;5793;52.238;13.438;2022-08-21T04:03:43;8.55;;;5.70;;
11473;SDS011;5793;52.238;13.438;2022-08-21T04:06:11;10.52;;;5.20;;
11473;SDS011;5793;52.238;13.438;2022-08-21T04:08:39;8.85;;;5.60;;
11473;SDS011;5793;52.238;13.438;2022-08-21T04:11:10;10.57;;;5.57;;
11473;SDS011;5793;52.238;13.438;2022-08-21T04:13:38;6.45;;;4.85;;
11473;SDS011;5793;52.238;13.438;2022-08-21T04:16:10;7.30;;;5.05;;
11473;SDS011;5793;52.238;13.438;2022-08-21T04:18:38;6.18;;;4.70;;
11473;SDS011;5793;52.238;13.438;2022-08-21T04:21:06;8.25;;;5.25;;
11473;SDS011;5793;52.238;13.438;2022-08-21T04:23:36;6.40;;;4.85;;
11473;SDS011;5793;52.238;13.438;2022-08-21T04:26:04;5.30;;;4.78;;
11473;SDS011;5793;52.238;13.438;2022-08-21T04:28:34;7.85;;;4.90;;
11473;SDS011;5793;52.238;13.438;2022-08-21T04:31:02;6.13;;;4.53;;
11473;SDS011;5793;52.238;13.438;2022-08-21T04:33:30;7.20;;;4.65;;
11473;SDS011;5793;52.238;13.438;2022-08-21T04:35:58;7.50;;;4.32;;
11473;SDS011;5793;52.238;13.438;2022-08-21T04:38:25;8.02;;;4.30;;
11473;SDS011;5793;52.238;13.438;2022-08-21T04:41:02;11.32;;;5.00;;
11473;SDS011;5793;52.238;13.438;2022-08-21T04:43:31;6.70;;;5.15;;
11473;SDS011;5793;52.238;13.438;2022-08-21T04:46:00;7.40;;;5.00;;
11473;SDS011;5793;52.238;13.438;2022-08-21T04:48:29;6.15;;;4.93;;
11473;SDS011;5793;52.238;13.438;2022-08-21T04:50:57;8.70;;;4.93;;
11473;SDS011;5793;52.238;13.438;2022-08-21T04:53:30;9.07;;;5.30;;
11473;SDS011;5793;52.238;13.438;2022-08-21T04:56:01;6.10;;;4.88;;
11473;SDS011;5793;52.238;13.438;2022-08-21T04:58:33;7.35;;;4.43;;
11473;SDS011;5793;52.238;13.438;2022-08-21T05:01:06;5.10;;;4.25;;
11473;SDS011;5793;52.238;13.438;2022-08-21T05:03:35;5.97;;;4.43;;
11473;SDS011;5793;52.238;13.438;2022-08-21T05:06:05;6.45;;;4.38;;
11473;SDS011;5793;52.238;13.438;2022-08-21T05:08:35;5.65;;;3.97;;
11473;SDS011;5793;52.238;13.438;2022-08-21T05:11:05;4.93;;;4.13;;
11473;SDS011;5793;52.238;13.438;2022-08-21T05:13:33;7.10;;;4.53;;
11473;SDS011;5793;52.238;13.438;2022-08-21T05:16:04;6.03;;;4.32;;
11473;SDS011;5793;52.238;13.438;2022-08-21T05:18:32;6.50;;;4.40;;
11473;SDS011;5793;52.238;13.438;2022-08-21T05:21:00;7.80;;;4.03;;
11473;SDS011;5793;52.238;13.438;2022-08-21T05:23:28;5.10;;;4.43;;
11473;SDS011;5793;52.238;13.438;2022-08-21T05:25:56;7.30;;;4.40;;
11473;SDS011;5793;52.238;13.438;2022-08-21T05:28:24;8.60;;;4.22;;
11473;SDS011;5793;52.238;13.438;2022-08-21T05:30:52;6.63;;;4.03;;
11473;SDS011;5793;52.238;13.438;2022-08-21T05:33:22;4.07;;;3.65;;
11473;SDS011;5793;52.238;13.438;2022-08-21T05:35:50;6.43;;;4.10;;
11473;SDS011;5793;52.238;13.438;2022-08-21T05:38:19;8.27;;;4.03;;
11473;SDS011;5793;52.238;13.438;2022-08-21T05:40:47;6.18;;;3.72;;
11473;SDS011;5793;52.238;13.438;2022-08-21T05:43:15;4.45;;;3.40;;
11473;SDS011;5793;52.238;13.438;2022-08-21T05:45:42;8.38;;;4.03;;
11473;SDS011;5793;52.238;13.438;2022-08-21T05:48:11;6.15;;;3.30;;
11473;SDS011;5793;52.238;13.438;2022-08-21T05:50:43;6.18;;;3.58;;
11473;SDS011;5793;52.238;13.438;2022-08-21T05:53:13;5.30;;;3.30;;
11473;SDS011;5793;52.238;13.438;2022-08-21T05:55:42;4.88;;;3.17;;
11473;SDS011;5793;52.238;13.438;2022-08-21T05:58:12;6.25;;;3.50;;
11473;SDS011;5793;52.238;13.438;2022-08-21T06:00:41;5.53;;;3.40;;
11473;SDS011;5793;52.238;13.438;2022-08-21T06:03:12;5.78;;;3.05;;
11473;SDS011;5793;52.238;13.438;2022-08-21T06:05:44;7.85;;;3.50;;
11473;SDS011;5793;52.238;13.438;2022-08-21T06:08:12;5.38;;;3.10;;
11473;SDS011;5793;52.238;13.438;2022-08-21T06:10:41;5.43;;;2.92;;
11473;SDS011;5793;52.238;13.438;2022-08-21T06:13:09;5.13;;;2.83;;
11473;SDS011;5793;52.238;13.438;2022-08-21T06:15:38;6.28;;;2.83;;
11473;SDS011;5793;52.238;13.438;2022-08-21T06:18:06;7.35;;;3.35;;
11473;SDS011;5793;52.238;13.438;2022-08-21T06:20:34;5.95;;;3.10;;
11473;SDS011;5793;52.238;13.438;2022-08-21T06:23:03;4.55;;;2.75;;
11473;SDS011;5793;52.238;13.438;2022-08-21T06:25:31;4.38;;;2.70;;
11473;SDS011;5793;52.238;13.438;2022-08-21T06:28:00;6.15;;;2.70;;
11473;SDS011;5793;52.238;13.438;2022-08-21T06:30:28;6.03;;;2.58;;
11473;SDS011;5793;52.238;13.438;2022-08-21T06:32:56;7.70;;;2.90;;
11473;SDS011;5793;52.238;13.438;2022-08-21T06:35:25;8.25;;;2.97;;
11473;SDS011;5793;52.238;13.438;2022-08-21T06:37:55;5.80;;;2.50;;
11473;SDS011;5793;52.238;13.438;2022-08-21T06:40:24;5.55;;;2.65;;
11473;SDS011;5793;52.238;13.438;2022-08-21T06:42:55;6.43;;;2.88;;
11473;SDS011;5793;52.238;13.438;2022-08-21T06:45:24;4.72;;;2.72;;
11473;SDS011;5793;52.238;13.438;2022-08-21T06:47:53;4.45;;;2.70;;
11473;SDS011;5793;52.238;13.438;2022-08-21T06:50:21;8.43;;;2.85;;
11473;SDS011;5793;52.238;13.438;2022-08-21T06:52:49;6.25;;;2.78;;
11473;SDS011;5793;52.238;13.438;2022-08-21T06:55:17;8.80;;;2.95;;
11473;SDS011;5793;52.238;13.438;2022-08-21T06:57:48;4.28;;;2.40;;
11473;SDS011;5793;52.238;13.438;2022-08-21T07:00:18;5.97;;;2.10;;
11473;SDS011;5793;52.238;13.438;2022-08-21T07:02:46;5.13;;;2.47;;
11473;SDS011;5793;52.238;13.438;2022-08-21T07:05:14;6.22;;;2.13;;
11473;SDS011;5793;52.238;13.438;2022-08-21T07:07:43;5.75;;;2.60;;
11473;SDS011;5793;52.238;13.438;2022-08-21T07:10:12;5.95;;;2.40;;
11473;SDS011;5793;52.238;13.438;2022-08-21T07:12:49;7.63;;;2.72;;
11473;SDS011;5793;52.238;13.438;2022-08-21T07:15:26;7.15;;;2.22;;
11473;SDS011;5793;52.238;13.438;2022-08-21T07:17:55;4.82;;;2.30;;
11473;SDS011;5793;52.238;13.438;2022-08-21T07:20:24;6.95;;;2.53;;
11473;SDS011;5793;52.238;13.438;2022-08-21T07:22:52;7.47;;;2.50;;
11473;SDS011;5793;52.238;13.438;2022-08-21T07:25:21;5.93;;;2.30;;
11473;SDS011;5793;52.238;13.438;2022-08-21T07:27:50;5.63;;;2.25;;
11473;SDS011;5793;52.238;13.438;2022-08-21T07:30:18;3.00;;;1.83;;
11473;SDS011;5793;52.238;13.438;2022-08-21T07:32:46;6.75;;;2.28;;
11473;SDS011;5793;52.238;13.438;2022-08-21T07:35:15;5.32;;;2.28;;
11473;SDS011;5793;52.238;13.438;2022-08-21T07:37:43;5.60;;;2.30;;
11473;SDS011;5793;52.238;13.438;2022-08-21T07:40:11;10.13;;;2.58;;
11473;SDS011;5793;52.238;13.438;2022-08-21T07:42:40;7.00;;;2.50;;
11473;SDS011;5793;52.238;13.438;2022-08-21T07:45:10;5.82;;;2.20;;
11473;SDS011;5793;52.238;13.438;2022-08-21T07:47:38;7.43;;;2.30;;
11473;SDS011;5793;52.238;13.438;2022-08-21T07:50:08;4.57;;;2.10;;
11473;SDS011;5793;52.238;13.438;2022-08-21T07:52:37;7.55;;;2.63;;
11473;SDS011;5793;52.238;13.438;2022-08-21T07:55:06;4.93;;;2.28;;
11473;SDS011;5793;52.238;13.438;2022-08-21T07:57:35;7.35;;;2.05;;
11473;SDS011;5793;52.238;13.438;2022-08-21T08:00:03;5.60;;;2.40;;
11473;SDS011;5793;52.238;13.438;2022-08-21T08:02:33;6.53;;;2.03;;
11473;SDS011;5793;52.238;13.438;2022-08-21T08:05:02;5.30;;;2.10;;
11473;SDS011;5793;52.238;13.438;2022-08-21T08:07:31;5.35;;;2.08;;
11473;SDS011;5793;52.238;13.438;2022-08-21T08:09:59;6.38;;;2.10;;
11473;SDS011;5793;52.238;13.438;2022-08-21T08:12:27;5.90;;;2.05;;
11473;SDS011;5793;52.238;13.438;2022-08-21T08:14:55;3.50;;;1.83;;
11473;SDS011;5793;52.238;13.438;2022-08-21T08:17:23;10.27;;;2.17;;
11473;SDS011;5793;52.238;13.438;2022-08-21T08:19:53;3.65;;;1.63;;
11473;SDS011;5793;52.238;13.438;2022-08-21T08:22:22;3.63;;;1.92;;
11473;SDS011;5793;52.238;13.438;2022-08-21T08:24:50;3.17;;;1.58;;
11473;SDS011;5793;52.238;13.438;2022-08-21T08:27:19;5.43;;;2.28;;
11473;SDS011;5793;52.238;13.438;2022-08-21T08:29:48;4.97;;;1.90;;
11473;SDS011;5793;52.238;13.438;2022-08-21T08:32:17;3.65;;;1.70;;
11473;SDS011;5793;52.238;13.438;2022-08-21T08:34:45;5.78;;;1.80;;
11473;SDS011;5793;52.238;13.438;2022-08-21T08:37:16;5.93;;;1.83;;
11473;SDS011;5793;52.238;13.438;2022-08-21T08:39:47;5.70;;;1.90;;
11473;SDS011;5793;52.238;13.438;2022-08-21T08:42:17;4.50;;;2.03;;
11473;SDS011;5793;52.238;13.438;2022-08-21T08:45:00;4.07;;;1.65;;
11473;SDS011;5793;52.238;13.438;2022-08-21T08:47:31;4.68;;;2.08;;
11473;SDS011;5793;52.238;13.438;2022-08-21T08:50:03;5.40;;;2.00;;
11473;SDS011;5793;52.238;13.438;2022-08-21T08:52:35;6.53;;;1.90;;
11473;SDS011;5793;52.238;13.438;2022-08-21T08:55:09;4.95;;;1.90;;
11473;SDS011;5793;52.238;13.438;2022-08-21T08:57:42;5.57;;;1.73;;
11473;SDS011;5793;52.238;13.438;2022-08-21T09:00:16;4.40;;;2.05;;
11473;SDS011;5793;52.238;13.438;2022-08-21T09:02:46;8.93;;;1.88;;
11473;SDS011;5793;52.238;13.438;2022-08-21T09:05:19;5.85;;;1.88;;
11473;SDS011;5793;52.238;13.438;2022-08-21T09:07:53;6.60;;;2.08;;
11473;SDS011;5793;52.238;13.438;2022-08-21T09:10:46;2.80;;;1.60;;
11473;SDS011;5793;52.238;13.438;2022-08-21T09:13:24;5.32;;;2.15;;
11473;SDS011;5793;52.238;13.438;2022-08-21T09:16:05;4.53;;;1.88;;
11473;SDS011;5793;52.238;13.438;2022-08-21T09:18:42;4.53;;;1.70;;
11473;SDS011;5793;52.238;13.438;2022-08-21T09:21:20;5.13;;;2.05;;
11473;SDS011;5793;52.238;13.438;2022-08-21T09:23:57;5.07;;;1.63;;
11473;SDS011;5793;52.238;13.438;2022-08-21T09:26:33;4.47;;;2.13;;
11473;SDS011;5793;52.238;13.438;2022-08-21T09:29:10;4.30;;;1.88;;
11473;SDS011;5793;52.238;13.438;2022-08-21T09:31:39;5.25;;;1.77;;
11473;SDS011;5793;52.238;13.438;2022-08-21T09:34:08;5.15;;;1.90;;
11473;SDS011;5793;52.238;13.438;2022-08-21T09:36:38;4.47;;;2.10;;
11473;SDS011;5793;52.238;13.438;2022-08-21T09:39:12;5.38;;;1.90;;
11473;SDS011;5793;52.238;13.438;2022-08-21T09:41:56;4.03;;;1.92;;
11473;SDS011;5793;52.238;13.438;2022-08-21T09:44:26;4.55;;;1.92;;
11473;SDS011;5793;52.238;13.438;2022-08-21T09:46:55;5.50;;;1.95;;
11473;SDS011;5793;52.238;13.438;2022-08-21T09:49:27;5.65;;;2.42;;
11473;SDS011;5793;52.238;13.438;2022-08-21T09:51:56;6.05;;;2.10;;
11473;SDS011;5793;52.238;13.438;2022-08-21T09:54:28;3.58;;;2.03;;
11473;SDS011;5793;52.238;13.438;2022-08-21T09:56:59;4.00;;;2.05;;
11473;SDS011;5793;52.238;13.438;2022-08-21T09:59:49;6.72;;;2.33;;
11473;SDS011;5793;52.238;13.438;2022-08-21T10:02:25;5.85;;;2.33;;
11473;SDS011;5793;52.238;13.438;2022-08-21T10:04:56;4.03;;;2.28;;
11473;SDS011;5793;52.238;13.438;2022-08-21T10:07:26;5.15;;;2.17;;
11473;SDS011;5793;52.238;13.438;2022-08-21T10:10:01;4.93;;;1.98;;
11473;SDS011;5793;52.238;13.438;2022-08-21T10:12:35;5.85;;;1.92;;
11473;SDS011;5793;52.238;13.438;2022-08-21T10:15:15;3.35;;;1.88;;
11473;SDS011;5793;52.238;13.438;2022-08-21T10:17:51;5.03;;;1.95;;
11473;SDS011;5793;52.238;13.438;2022-08-21T10:20:27;4.45;;;1.73;;
11473;SDS011;5793;52.238;13.438;2022-08-21T10:23:05;5.20;;;2.47;;
11473;SDS011;5793;52.238;13.438;2022-08-21T10:25:44;4.82;;;1.90;;
11473;SDS011;5793;52.238;13.438;2022-08-21T10:28:39;3.85;;;2.10;;
11473;SDS011;5793;52.238;13.438;2022-08-21T10:31:15;4.55;;;2.10;;
11473;SDS011;5793;52.238;13.438;2022-08-21T10:33:51;3.10;;;1.63;;
11473;SDS011;5793;52.238;13.438;2022-08-21T10:36:32;6.07;;;1.90;;
11473;SDS011;5793;52.238;13.438;2022-08-21T10:39:07;3.67;;;1.90;;
11473;SDS011;5793;52.238;13.438;2022-08-21T10:42:15;3.65;;;1.77;;
11473;SDS011;5793;52.238;13.438;2022-08-21T10:44:57;4.10;;;1.60;;
11473;SDS011;5793;52.238;13.438;2022-08-21T10:47:35;3.20;;;1.80;;
11473;SDS011;5793;52.238;13.438;2022-08-21T10:50:10;3.92;;;1.80;;
11473;SDS011;5793;52.238;13.438;2022-08-21T10:52:51;6.22;;;1.55;;
11473;SDS011;5793;52.238;13.438;2022-08-21T10:55:33;2.42;;;1.40;;
11473;SDS011;5793;52.238;13.438;2022-08-21T10:58:08;3.83;;;1.70;;
11473;SDS011;5793;52.238;13.438;2022-08-21T11:00:39;2.33;;;1.50;;
11473;SDS011;5793;52.238;13.438;2022-08-21T11:03:13;2.95;;;1.50;;
11473;SDS011;5793;52.238;13.438;2022-08-21T11:05:46;4.38;;;1.48;;
11473;SDS011;5793;52.238;13.438;2022-08-21T11:08:20;4.85;;;1.70;;
11473;SDS011;5793;52.238;13.438;2022-08-21T11:10:53;4.72;;;1.70;;
11473;SDS011;5793;52.238;13.438;2022-08-21T11:13:33;2.65;;;1.63;;
11473;SDS011;5793;52.238;13.438;2022-08-21T11:16:10;2.40;;;1.33;;
11473;SDS011;5793;52.238;13.438;2022-08-21T11:18:43;2.53;;;1.58;;
11473;SDS011;5793;52.238;13.438;2022-08-21T11:21:24;2.03;;;1.30;;
11473;SDS011;5793;52.238;13.438;2022-08-21T11:23:57;2.22;;;1.08;;
11473;SDS011;5793;52.238;13.438;2022-08-21T11:26:33;3.20;;;1.38;;
11473;SDS011;5793;52.238;13.438;2022-08-21T11:29:09;2.25;;;1.55;;
11473;SDS011;5793;52.238;13.438;2022-08-21T11:31:51;1.73;;;1.27;;
11473;SDS011;5793;52.238;13.438;2022-08-21T11:34:32;2.35;;;1.30;;
11473;SDS011;5793;52.238;13.438;2022-08-21T11:37:09;7.57;;;1.77;;
11473;SDS011;5793;52.238;13.438;2022-08-21T11:39:47;3.58;;;1.05;;
11473;SDS011;5793;52.238;13.438;2022-08-21T11:42:25;3.28;;;1.27;;
11473;SDS011;5793;52.238;13.438;2022-08-21T11:47:44;1.83;;;1.08;;
11473;SDS011;5793;52.238;13.438;2022-08-21T11:50:20;3.97;;;1.30;;
11473;SDS011;5793;52.238;13.438;2022-08-21T11:53:02;1.48;;;1.13;;
11473;SDS011;5793;52.238;13.438;2022-08-21T11:55:36;2.13;;;1.30;;
11473;SDS011;5793;52.238;13.438;2022-08-21T11:58:09;2.75;;;1.20;;
11473;SDS011;5793;52.238;13.438;2022-08-21T12:00:45;4.95;;;1.55;;
11473;SDS011;5793;52.238;13.438;2022-08-21T12:03:21;2.72;;;1.50;;
11473;SDS011;5793;52.238;13.438;2022-08-21T12:05:53;3.17;;;1.70;;
11473;SDS011;5793;52.238;13.438;2022-08-21T12:08:27;2.85;;;1.30;;
11473;SDS011;5793;52.238;13.438;2022-08-21T12:10:59;3.25;;;1.40;;
11473;SDS011;5793;52.238;13.438;2022-08-21T12:13:30;3.55;;;1.42;;
11473;SDS011;5793;52.238;13.438;2022-08-21T12:16:09;3.83;;;1.58;;
11473;SDS011;5793;52.238;13.438;2022-08-21T12:18:40;2.03;;;1.30;;
11473;SDS011;5793;52.238;13.438;2022-08-21T12:21:22;4.43;;;1.30;;
11473;SDS011;5793;52.238;13.438;2022-08-21T12:23:59;2.33;;;1.40;;
11473;SDS011;5793;52.238;13.438;2022-08-21T12:26:30;2.42;;;1.33;;
11473;SDS011;5793;52.238;13.438;2022-08-21T12:31:53;6.15;;;1.77;;
11473;SDS011;5793;52.238;13.438;2022-08-21T12:34:30;2.40;;;1.33;;
11473;SDS011;5793;52.238;13.438;2022-08-21T12:37:02;3.83;;;1.48;;
11473;SDS011;5793;52.238;13.438;2022-08-21T12:39:35;4.13;;;1.60;;
11473;SDS011;5793;52.238;13.438;2022-08-21T12:42:06;1.65;;;1.17;;
11473;SDS011;5793;52.238;13.438;2022-08-21T12:44:44;3.30;;;1.20;;
11473;SDS011;5793;52.238;13.438;2022-08-21T12:47:17;4.65;;;1.20;;
11473;SDS011;5793;52.238;13.438;2022-08-21T12:49:53;2.30;;;1.60;;
11473;SDS011;5793;52.238;13.438;2022-08-21T12:52:29;1.30;;;1.15;;
11473;SDS011;5793;52.238;13.438;2022-08-21T12:55:05;3.75;;;1.40;;
11473;SDS011;5793;52.238;13.438;2022-08-21T12:57:35;1.92;;;1.40;;
11473;SDS011;5793;52.238;13.438;2022-08-21T13:00:05;3.25;;;1.38;;
11473;SDS011;5793;52.238;13.438;2022-08-21T13:02:38;2.25;;;1.20;;
11473;SDS011;5793;52.238;13.438;2022-08-21T13:05:12;2.78;;;1.30;;
11473;SDS011;5793;52.238;13.438;2022-08-21T13:07:44;2.72;;;1.30;;
11473;SDS011;5793;52.238;13.438;2022-08-21T13:10:15;7.03;;;1.50;;
11473;SDS011;5793;52.238;13.438;2022-08-21T13:12:47;2.45;;;1.45;;
11473;SDS011;5793;52.238;13.438;2022-08-21T13:15:21;2.20;;;1.25;;
11473;SDS011;5793;52.238;13.438;2022-08-21T13:18:00;2.47;;;1.40;;
11473;SDS011;5793;52.238;13.438;2022-08-21T13:20:30;2.05;;;1.40;;
11473;SDS011;5793;52.238;13.438;2022-08-21T13:22:59;2.22;;;1.42;;
11473;SDS011;5793;52.238;13.438;2022-08-21T13:25:28;3.10;;;1.65;;
11473;SDS011;5793;52.238;13.438;2022-08-21T13:28:03;3.80;;;1.70;;
11473;SDS011;5793;52.238;13.438;2022-08-21T13:30:33;2.47;;;1.45;;
11473;SDS011;5793;52.238;13.438;2022-08-21T13:33:04;3.05;;;1.50;;
11473;SDS011;5793;52.238;13.438;2022-08-21T13:35:46;3.80;;;1.92;;
11473;SDS011;5793;52.238;13.438;2022-08-21T13:38:16;4.63;;;1.80;;
11473;SDS011;5793;52.238;13.438;2022-08-21T13:40:53;4.03;;;1.50;;
11473;SDS011;5793;52.238;13.438;2022-08-21T13:43:25;3.35;;;1.35;;
11473;SDS011;5793;52.238;13.438;2022-08-21T13:45:55;3.75;;;1.60;;
11473;SDS011;5793;52.238;13.438;2022-08-21T13:48:26;2.40;;;1.40;;
11473;SDS011;5793;52.238;13.438;2022-08-21T13:50:55;4.95;;;1.70;;
11473;SDS011;5793;52.238;13.438;2022-08-21T13:53:27;2.85;;;1.73;;
11473;SDS011;5793;52.238;13.438;2022-08-21T13:55:57;2.58;;;1.60;;
11473;SDS011;5793;52.238;13.438;2022-08-21T13:58:28;3.85;;;1.65;;
11473;SDS011;5793;52.238;13.438;2022-08-21T14:00:58;2.83;;;1.50;;
11473;SDS011;5793;52.238;13.438;2022-08-21T14:03:34;3.10;;;1.70;;
11473;SDS011;5793;52.238;13.438;2022-08-21T14:06:12;2.20;;;1.50;;
11473;SDS011;5793;52.238;13.438;2022-08-21T14:08:46;3.03;;;1.58;;
11473;SDS011;5793;52.238;13.438;2022-08-21T14:11:17;5.55;;;2.17;;
11473;SDS011;5793;52.238;13.438;2022-08-21T14:13:47;2.47;;;1.50;;
11473;SDS011;5793;52.238;13.438;2022-08-21T14:16:19;4.95;;;2.03;;
11473;SDS011;5793;52.238;13.438;2022-08-21T14:18:52;3.45;;;1.80;;
11473;SDS011;5793;52.238;13.438;2022-08-21T14:21:34;3.28;;;1.92;;
11473;SDS011;5793;52.238;13.438;2022-08-21T14:24:06;4.18;;;2.13;;
11473;SDS011;5793;52.238;13.438;2022-08-21T14:26:36;3.72;;;1.83;;
11473;SDS011;5793;52.238;13.438;2022-08-21T14:29:12;2.65;;;1.52;;
11473;SDS011;5793;52.238;13.438;2022-08-21T14:31:41;2.17;;;1.40;;
11473;SDS011;5793;52.238;13.438;2022-08-21T14:34:12;4.68;;;1.70;;
11473;SDS011;5793;52.238;13.438;2022-08-21T14:36:45;3.78;;;1.90;;
11473;SDS011;5793;52.238;13.438;2022-08-21T14:39:14;4.80;;;1.95;;
11473;SDS011;5793;52.238;13.438;2022-08-21T14:41:42;2.50;;;1.52;;
11473;SDS011;5793;52.238;13.438;2022-08-21T14:44:12;4.93;;;1.70;;
11473;SDS011;5793;52.238;13.438;2022-08-21T14:46:40;3.80;;;1.83;;
11473;SDS011;5793;52.238;13.438;2022-08-21T14:49:22;5.40;;;1.90;;
11473;SDS011;5793;52.238;13.438;2022-08-21T14:51:53;2.88;;;1.63;;
11473;SDS011;5793;52.238;13.438;2022-08-21T14:54:24;3.10;;;1.77;;
11473;SDS011;5793;52.238;13.438;2022-08-21T14:56:57;4.85;;;1.90;;
11473;SDS011;5793;52.238;13.438;2022-08-21T14:59:27;5.03;;;1.92;;
11473;SDS011;5793;52.238;13.438;2022-08-21T15:01:56;2.92;;;1.90;;
11473;SDS011;5793;52.238;13.438;2022-08-21T15:04:25;2.03;;;1.60;;
11473;SDS011;5793;52.238;13.438;2022-08-21T15:06:53;4.30;;;1.90;;
11473;SDS011;5793;52.238;13.438;2022-08-21T15:09:20;4.80;;;2.03;;
11473;SDS011;5793;52.238;13.438;2022-08-21T15:11:49;4.35;;;1.88;;
11473;SDS011;5793;52.238;13.438;2022-08-21T15:14:20;5.80;;;2.05;;